Time;durP1;ratioP1;P1;durP2;ratioP2;P2;SDS_P1;SDS_P2;PMS_P1;PMS_P2;Temp;Humidity;BMP_temperature;BMP_pressure;BME280_temperature;BME280_humidity;BME280_pressure;Samples;Min_cycle;Max_cycle;Signal;HPM_P1;HPM_P2
2022/01/03 00:00:58;;;;;;;18.73;3.80;;;11.60;98.30;;;;;;6269023;22;20308;-81
2022/01/03 00:03:39;;;;;;;13.93;4.33;;;11.60;97.90;;;;;;6295533;22;20136;-87
2022/01/03 00:06:11;;;;;;;16.33;3.90;;;11.60;98.10;;;;;;6272572;22;20129;-86
2022/01/03 00:09:24;;;;;;;13.97;3.50;;;11.60;98.20;;;;;;6272711;23;20141;-83
2022/01/03 00:15:15;;;;;;;18.97;4.10;;;11.60;97.80;;;;;;6272234;22;20180;-82
2022/01/03 00:17:53;;;;;;;19.87;3.90;;;11.60;97.90;;;;;;6271363;22;20144;-87
2022/01/03 00:20:32;;;;;;;17.03;3.80;;;11.60;98.20;;;;;;6271926;22;20141;-88
2022/01/03 00:30:35;;;;;;;13.83;3.77;;;11.60;97.50;;;;;;6270661;22;20200;-86
2022/01/03 00:33:52;;;;;;;15.43;4.00;;;11.50;98.20;;;;;;6245714;22;20219;-81
2022/01/03 00:36:27;;;;;;;14.03;3.30;;;11.50;98.30;;;;;;6248108;22;20152;-81
2022/01/03 00:39:02;;;;;;;13.23;3.40;;;11.50;98.60;;;;;;6248455;22;20136;-79
2022/01/03 00:41:59;;;;;;;17.80;3.50;;;11.50;98.70;;;;;;6272025;22;20132;-79
2022/01/03 00:44:33;;;;;;;16.87;4.17;;;11.40;98.90;;;;;;6273599;22;20129;-79
2022/01/03 00:47:06;;;;;;;13.63;3.23;;;11.50;98.90;;;;;;6223111;22;20203;-79
2022/01/03 00:50:10;;;;;;;14.37;3.63;;;11.50;98.80;;;;;;6270736;22;20239;-88
2022/01/03 00:52:54;;;;;;;18.27;3.87;;;11.50;98.10;;;;;;6272796;22;20145;-83
2022/01/03 00:59:16;;;;;;;17.07;3.47;;;11.50;97.40;;;;;;6272104;23;20131;-81
2022/01/03 01:05:24;;;;;;;15.00;3.30;;;11.60;96.80;;;;;;6271421;22;20167;-82
2022/01/03 01:07:57;;;;;;;13.03;3.27;;;11.60;96.90;;;;;;6273354;23;20148;-89
2022/01/03 01:10:44;;;;;;;20.23;4.20;;;11.60;97.30;;;;;;6276183;22;20168;-86
2022/01/03 01:13:13;;;;;;;13.83;2.80;;;11.60;97.30;;;;;;6273215;22;20191;-80
2022/01/03 01:15:48;;;;;;;14.20;3.03;;;11.60;97.30;;;;;;6273629;22;20151;-81
2022/01/03 01:18:25;;;;;;;17.10;3.90;;;11.50;97.70;;;;;;6272625;23;20174;-80
2022/01/03 01:20:58;;;;;;;13.37;3.10;;;11.50;97.90;;;;;;6274505;22;20125;-79
2022/01/03 01:23:29;;;;;;;17.30;3.60;;;11.50;97.90;;;;;;6273043;22;20151;-80
2022/01/03 01:29:37;;;;;;;21.03;3.57;;;11.60;97.30;;;;;;6273281;22;20131;-79
2022/01/03 01:32:09;;;;;;;15.37;4.10;;;11.60;97.20;;;;;;6289325;22;20137;-80
2022/01/03 01:34:55;;;;;;;11.97;3.83;;;11.60;96.80;;;;;;6293366;22;20196;-83
2022/01/03 01:37:25;;;;;;;15.03;3.40;;;11.60;97.30;;;;;;6272266;22;20143;-79
2022/01/03 01:39:58;;;;;;;12.73;3.23;;;11.60;97.50;;;;;;6270132;23;20155;-80
2022/01/03 01:43:02;;;;;;;18.70;3.73;;;11.60;97.50;;;;;;6272025;22;20132;-80
2022/01/03 01:45:58;;;;;;;15.43;3.37;;;11.60;97.10;;;;;;6270411;22;20155;-84
2022/01/03 01:48:34;;;;;;;13.37;3.30;;;11.70;96.90;;;;;;6267942;23;20178;-95
2022/01/03 01:51:43;;;;;;;13.63;3.33;;;11.70;96.40;;;;;;6268861;22;20155;-88
2022/01/03 02:01:48;;;;;;;17.63;3.20;;;11.70;96.30;;;;;;6275218;22;20155;-84
2022/01/03 02:04:45;;;;;;;13.87;3.20;;;11.70;96.50;;;;;;6274413;22;20152;-80
2022/01/03 02:08:03;;;;;;;20.20;3.60;;;11.70;96.00;;;;;;6274567;22;20143;-84
2022/01/03 02:13:55;;;;;;;16.30;4.30;;;11.60;96.30;;;;;;6273222;22;20191;-79
2022/01/03 02:20:25;;;;;;;11.50;3.10;;;11.50;97.20;;;;;;6273405;22;20175;-79
2022/01/03 02:22:57;;;;;;;17.10;3.80;;;11.40;97.90;;;;;;6272062;22;20219;-80
2022/01/03 02:25:30;;;;;;;22.13;4.90;;;11.60;97.70;;;;;;6273425;22;20129;-80
2022/01/03 02:31:04;;;;;;;19.17;4.17;;;11.50;98.00;;;;;;6274721;22;20130;-81
2022/01/03 02:37:05;;;;;;;14.17;3.67;;;11.40;98.20;;;;;;6274785;22;20132;-82
2022/01/03 02:43:15;;;;;;;11.90;3.00;;;11.30;99.10;;;;;;6275088;22;20175;-81
2022/01/03 02:45:46;;;;;;;8.43;2.17;;;11.30;98.70;;;;;;6274718;22;20136;-80
2022/01/03 02:48:21;;;;;;;11.93;3.43;;;11.30;98.50;;;;;;6274927;22;20125;-80
2022/01/03 02:50:47;;;;;;;16.63;3.57;;;11.20;98.90;;;;;;6297283;22;20128;-80
2022/01/03 02:53:17;;;;;;;10.83;2.73;;;11.20;99.00;;;;;;6273019;22;20187;-81
2022/01/03 02:56:11;;;;;;;12.13;2.77;;;11.20;99.20;;;;;;6272273;22;20199;-85
2022/01/03 03:02:02;;;;;;;15.53;3.07;;;11.10;99.60;;;;;;6273056;22;20136;-81
2022/01/03 03:04:59;;;;;;;8.23;2.10;;;11.00;99.90;;;;;;6271857;22;20186;-82
2022/01/03 03:07:29;;;;;;;9.07;2.50;;;11.10;99.50;;;;;;6271274;23;20145;-86
2022/01/03 03:09:57;;;;;;;12.27;3.40;;;11.00;99.60;;;;;;6272990;22;20132;-81
2022/01/03 03:12:25;;;;;;;18.23;3.80;;;11.00;99.90;;;;;;6270865;22;20156;-90
2022/01/03 03:14:52;;;;;;;17.00;3.83;;;10.90;99.90;;;;;;6272011;22;20163;-80
2022/01/03 03:17:19;;;;;;;17.80;4.53;;;11.00;99.90;;;;;;6272992;22;20109;-80
2022/01/03 03:20:01;;;;;;;14.10;2.90;;;10.90;99.90;;;;;;6273021;22;20164;-80
2022/01/03 03:22:39;;;;;;;13.80;2.93;;;10.90;99.90;;;;;;6273293;22;20136;-79
2022/01/03 03:25:17;;;;;;;12.57;3.27;;;10.80;99.90;;;;;;6298086;22;20201;-80
2022/01/03 03:27:50;;;;;;;12.67;3.10;;;10.80;99.90;;;;;;6273790;22;20142;-85
2022/01/03 03:30:28;;;;;;;17.27;4.30;;;10.70;99.90;;;;;;6294588;22;20195;-85
2022/01/03 03:33:32;;;;;;;11.17;2.93;;;10.80;99.90;;;;;;6268939;23;20139;-85
2022/01/03 03:36:16;;;;;;;11.67;3.47;;;10.70;99.90;;;;;;6263121;23;20157;-93
2022/01/03 03:38:42;;;;;;;11.83;3.47;;;10.80;99.90;;;;;;6262608;23;20148;-96
2022/01/03 03:41:09;;;;;;;14.30;3.30;;;10.70;99.90;;;;;;6263728;22;20132;-92
2022/01/03 03:43:40;;;;;;;10.60;2.47;;;10.70;99.90;;;;;;6267090;23;20141;-89
2022/01/03 03:46:15;;;;;;;21.83;3.43;;;10.80;99.90;;;;;;6271460;23;20159;-81
2022/01/03 03:48:43;;;;;;;13.23;3.10;;;10.70;99.90;;;;;;6274159;22;20128;-95
2022/01/03 03:51:10;;;;;;;13.53;3.13;;;10.80;99.90;;;;;;6272159;22;20208;-92
2022/01/03 03:53:39;;;;;;;13.03;2.93;;;10.80;99.90;;;;;;6296563;22;20176;-91
2022/01/03 03:56:10;;;;;;;15.83;3.70;;;10.80;99.90;;;;;;6270911;23;20152;-94
2022/01/03 03:58:50;;;;;;;12.23;3.00;;;10.70;99.90;;;;;;6270496;23;20172;-83
2022/01/03 04:02:02;;;;;;;15.67;3.40;;;10.70;99.90;;;;;;6271553;22;20183;-81
2022/01/03 04:05:24;;;;;;;15.80;3.30;;;10.80;99.90;;;;;;6273811;22;20144;-81
2022/01/03 04:11:36;;;;;;;19.83;3.63;;;10.80;99.90;;;;;;6270947;22;20212;-79
2022/01/03 04:14:21;;;;;;;13.00;3.37;;;10.90;99.90;;;;;;6270223;22;20161;-79
2022/01/03 04:17:43;;;;;;;16.00;4.17;;;10.90;99.90;;;;;;6271528;22;20152;-87
2022/01/03 04:21:02;;;;;;;17.70;3.17;;;10.90;99.90;;;;;;6261519;23;20609;-92
2022/01/03 04:23:28;;;;;;;15.27;3.37;;;10.90;99.90;;;;;;6258837;23;20148;-96
2022/01/03 04:25:57;;;;;;;16.57;3.27;;;10.90;99.90;;;;;;6256020;23;20137;-94
2022/01/03 04:28:25;;;;;;;13.67;3.37;;;10.90;99.90;;;;;;6259197;22;20141;-94
2022/01/03 04:30:51;;;;;;;18.23;4.00;;;10.90;99.90;;;;;;6256447;23;20117;-86
2022/01/03 04:33:19;;;;;;;18.53;3.60;;;10.90;99.90;;;;;;6254528;22;20179;-90
2022/01/03 04:35:47;;;;;;;13.80;3.17;;;10.90;99.90;;;;;;6253396;23;20152;-95
2022/01/03 04:38:19;;;;;;;14.27;3.50;;;11.10;99.90;;;;;;6254201;23;20168;-94
2022/01/03 04:40:50;;;;;;;12.47;4.03;;;11.10;99.50;;;;;;6265478;23;20159;-83
2022/01/03 04:43:16;;;;;;;17.00;3.90;;;11.10;99.40;;;;;;6297262;22;20120;-82
2022/01/03 04:45:47;;;;;;;10.10;2.80;;;11.20;98.60;;;;;;6270392;22;20566;-83
2022/01/03 04:48:12;;;;;;;13.90;3.17;;;11.00;99.00;;;;;;6273337;22;20112;-81
2022/01/03 04:50:40;;;;;;;14.07;2.97;;;11.10;98.90;;;;;;6270610;22;20549;-89
2022/01/03 04:53:07;;;;;;;13.00;3.27;;;11.20;98.90;;;;;;6272041;22;20581;-79
2022/01/03 04:55:32;;;;;;;13.73;3.90;;;11.10;98.90;;;;;;6294459;22;20175;-94
2022/01/03 04:58:00;;;;;;;13.63;2.90;;;11.20;98.90;;;;;;6266936;23;20148;-82
2022/01/03 05:00:26;;;;;;;16.43;4.10;;;11.10;98.80;;;;;;6264248;22;20557;-83
2022/01/03 05:02:52;;;;;;;13.87;3.37;;;11.10;98.60;;;;;;6252211;23;20161;-81
2022/01/03 05:05:17;;;;;;;15.07;3.30;;;11.00;99.10;;;;;;6255174;23;20286;-92
2022/01/03 05:07:43;;;;;;;13.30;3.17;;;10.90;99.50;;;;;;6253134;23;20262;-95
2022/01/03 05:10:09;;;;;;;16.17;3.87;;;10.90;99.80;;;;;;6253303;23;20136;-91
2022/01/03 05:12:36;;;;;;;13.70;3.07;;;11.00;99.40;;;;;;6254951;23;20168;-83
2022/01/03 05:15:02;;;;;;;15.97;3.70;;;10.90;99.60;;;;;;6255539;23;20173;-88
2022/01/03 05:17:31;;;;;;;13.30;3.23;;;10.80;99.90;;;;;;6255598;22;20214;-94
2022/01/03 05:19:59;;;;;;;17.43;3.80;;;10.80;99.90;;;;;;6255682;22;20159;-95
2022/01/03 05:22:26;;;;;;;12.80;3.33;;;10.70;99.90;;;;;;6255417;23;20148;-94
2022/01/03 05:24:52;;;;;;;11.27;3.40;;;10.50;99.90;;;;;;6267653;22;20143;-78
2022/01/03 05:27:18;;;;;;;19.67;3.77;;;10.80;99.90;;;;;;6298021;22;20176;-85
2022/01/03 05:29:46;;;;;;;17.80;3.83;;;10.80;99.90;;;;;;6265566;23;20152;-80
2022/01/03 05:32:12;;;;;;;14.80;3.47;;;10.80;99.90;;;;;;6271314;22;20189;-84
2022/01/03 05:34:41;;;;;;;16.50;3.93;;;10.80;99.90;;;;;;6272833;22;20156;-79
2022/01/03 05:37:06;;;;;;;14.57;4.13;;;10.80;99.90;;;;;;6272325;22;20167;-80
2022/01/03 05:39:32;;;;;;;19.60;3.87;;;11.00;99.90;;;;;;6297810;22;20153;-87
2022/01/03 05:41:58;;;;;;;18.97;4.77;;;10.80;99.90;;;;;;6273032;22;20140;-81
2022/01/03 05:44:25;;;;;;;15.60;3.87;;;10.90;99.90;;;;;;6271770;22;20148;-80
2022/01/03 05:46:53;;;;;;;19.07;3.93;;;10.90;99.90;;;;;;6272212;22;20152;-79
2022/01/03 05:49:32;;;;;;;16.57;3.67;;;10.90;99.90;;;;;;6270730;22;20196;-81
2022/01/03 05:52:10;;;;;;;16.67;3.60;;;11.00;99.90;;;;;;6272371;22;20136;-81
2022/01/03 05:54:39;;;;;;;14.37;3.80;;;10.90;99.90;;;;;;6273180;22;20183;-80
2022/01/03 05:57:08;;;;;;;17.57;4.00;;;10.80;99.90;;;;;;6297701;22;20159;-80
2022/01/03 05:59:36;;;;;;;18.03;3.50;;;10.80;99.90;;;;;;6271302;22;20160;-82
2022/01/03 06:02:04;;;;;;;17.27;4.10;;;10.80;99.90;;;;;;6271220;22;20197;-80
2022/01/03 06:05:16;;;;;;;18.47;5.07;;;10.80;99.90;;;;;;6270700;22;20160;-81
2022/01/03 06:07:44;;;;;;;18.83;3.57;;;10.80;99.90;;;;;;6268106;22;20164;-80
2022/01/03 06:10:14;;;;;;;14.80;3.93;;;10.80;99.90;;;;;;6270979;23;20139;-81
2022/01/03 06:12:50;;;;;;;15.10;4.10;;;10.80;99.90;;;;;;6269945;22;20149;-79
2022/01/03 06:15:16;;;;;;;18.53;3.77;;;10.80;99.90;;;;;;6269137;22;20211;-80
2022/01/03 06:18:29;;;;;;;18.37;4.07;;;10.90;99.90;;;;;;6254755;23;20139;-92
2022/01/03 06:20:55;;;;;;;14.40;3.93;;;10.90;99.90;;;;;;6260472;23;20155;-82
2022/01/03 06:23:21;;;;;;;19.63;4.60;;;11.00;99.90;;;;;;6255840;23;20164;-94
2022/01/03 06:25:47;;;;;;;11.70;3.97;;;10.90;99.90;;;;;;6260507;22;20152;-82
2022/01/03 06:28:14;;;;;;;13.07;3.30;;;10.90;99.90;;;;;;6269212;22;20144;-80
2022/01/03 06:30:42;;;;;;;18.07;3.90;;;11.00;99.90;;;;;;6266546;22;20132;-82
2022/01/03 06:33:10;;;;;;;16.20;4.40;;;11.00;99.90;;;;;;6267927;22;20167;-80
2022/01/03 06:35:36;;;;;;;14.07;3.20;;;11.10;99.90;;;;;;6272148;22;20203;-81
2022/01/03 06:38:04;;;;;;;13.77;3.57;;;10.90;99.90;;;;;;6269487;22;20159;-91
2022/01/03 06:40:30;;;;;;;14.07;4.33;;;10.90;99.90;;;;;;6268775;23;20147;-87
2022/01/03 06:42:56;;;;;;;14.83;4.10;;;11.10;99.90;;;;;;6270374;22;20120;-80
2022/01/03 06:45:22;;;;;;;17.77;4.37;;;11.00;99.90;;;;;;6272378;23;20139;-79
2022/01/03 06:47:50;;;;;;;16.37;3.80;;;10.90;99.90;;;;;;6269921;22;20529;-85
2022/01/03 06:50:20;;;;;;;16.93;4.00;;;10.90;99.90;;;;;;6268551;22;20143;-87
2022/01/03 06:52:49;;;;;;;12.90;3.33;;;11.00;99.90;;;;;;6269448;23;20231;-79
2022/01/03 06:55:18;;;;;;;20.17;4.37;;;11.00;99.90;;;;;;6270349;22;20145;-80
2022/01/03 06:57:47;;;;;;;19.17;3.73;;;11.00;99.90;;;;;;6266828;23;20140;-80
2022/01/03 07:00:16;;;;;;;18.77;3.57;;;11.00;99.90;;;;;;6272398;22;20137;-82
2022/01/03 07:03:01;;;;;;;14.17;4.03;;;11.00;99.90;;;;;;6270487;22;20160;-78
2022/01/03 07:05:27;;;;;;;11.70;2.97;;;10.90;99.90;;;;;;6273312;22;20144;-78
2022/01/03 07:08:27;;;;;;;13.77;3.77;;;11.00;99.90;;;;;;6273422;22;20180;-78
2022/01/03 07:10:58;;;;;;;14.23;3.80;;;11.10;99.90;;;;;;6273515;22;20120;-85
2022/01/03 07:13:26;;;;;;;16.47;4.57;;;11.10;99.40;;;;;;6273618;22;20160;-79
2022/01/03 07:19:06;;;;;;;20.77;4.60;;;11.20;99.50;;;;;;6274853;23;20152;-83
2022/01/03 07:22:25;;;;;;;14.97;3.57;;;11.10;99.10;;;;;;6219195;23;20169;-79
2022/01/03 07:28:34;;;;;;;18.17;3.57;;;11.20;98.50;;;;;;6241773;23;20167;-80
2022/01/03 07:31:03;;;;;;;16.17;3.50;;;11.20;98.80;;;;;;6240243;23;20195;-79
2022/01/03 07:33:58;;;;;;;14.07;3.57;;;11.10;98.60;;;;;;6238140;23;20204;-79
2022/01/03 07:39:46;;;;;;;12.33;3.50;;;11.10;99.10;;;;;;6243786;22;20239;-81
2022/01/03 07:46:05;;;;;;;12.40;3.37;;;11.10;99.70;;;;;;6241972;22;20133;-80
2022/01/03 07:48:53;;;;;;;12.27;3.60;;;11.10;99.40;;;;;;6242777;22;20182;-79
2022/01/03 07:54:45;;;;;;;18.30;3.73;;;11.10;99.80;;;;;;6241005;23;20254;-86
2022/01/03 07:57:38;;;;;;;13.63;4.00;;;11.00;99.90;;;;;;6241261;23;20171;-79
2022/01/03 08:00:12;;;;;;;13.23;3.93;;;11.10;99.90;;;;;;6240296;23;20164;-81
2022/01/03 08:02:50;;;;;;;18.97;4.37;;;11.10;99.30;;;;;;6240886;22;20182;-80
2022/01/03 08:08:40;;;;;;;12.60;3.33;;;11.10;99.90;;;;;;6242388;22;20149;-80
2022/01/03 08:11:39;;;;;;;16.20;4.07;;;11.20;99.90;;;;;;6240035;22;20169;-87
2022/01/03 08:17:37;;;;;;;16.93;3.53;;;11.10;99.80;;;;;;6228350;23;20135;-85
2022/01/03 08:20:41;;;;;;;17.60;4.13;;;11.10;99.70;;;;;;6228751;23;20154;-80
2022/01/03 08:26:29;;;;;;;13.30;3.80;;;11.20;99.60;;;;;;6271430;23;20168;-79
2022/01/03 08:28:57;;;;;;;14.23;3.53;;;11.30;99.20;;;;;;6268840;22;20133;-82
2022/01/03 08:31:26;;;;;;;18.27;4.27;;;11.10;99.80;;;;;;6272960;22;20140;-82
2022/01/03 08:34:00;;;;;;;17.20;4.40;;;11.10;99.90;;;;;;6274561;22;20172;-81
2022/01/03 08:36:26;;;;;;;15.47;4.30;;;11.20;99.90;;;;;;6272620;22;20144;-78
2022/01/03 08:39:38;;;;;;;16.60;4.17;;;11.20;99.90;;;;;;6269245;22;20176;-90
2022/01/03 08:42:26;;;;;;;17.77;4.23;;;11.20;99.90;;;;;;6267250;23;20136;-92
2022/01/03 08:45:48;;;;;;;16.87;3.60;;;11.20;99.90;;;;;;6263008;23;20152;-84
2022/01/03 08:49:07;;;;;;;17.23;4.13;;;11.30;99.70;;;;;;6259447;23;20210;-93
2022/01/03 08:52:20;;;;;;;14.10;3.57;;;11.30;99.80;;;;;;6272091;22;20133;-78
2022/01/03 08:55:21;;;;;;;15.73;3.37;;;11.30;99.60;;;;;;6270790;22;20159;-81
2022/01/03 08:58:06;;;;;;;14.60;3.13;;;11.30;99.40;;;;;;6273960;22;20123;-81
2022/01/03 09:00:55;;;;;;;11.60;3.47;;;11.20;99.40;;;;;;6271900;22;20136;-79
2022/01/03 09:03:39;;;;;;;12.80;3.40;;;11.20;99.80;;;;;;6273611;22;20129;-81
2022/01/03 09:06:05;;;;;;;11.70;3.00;;;11.30;99.30;;;;;;6274062;22;20133;-79
2022/01/03 09:08:45;;;;;;;12.57;4.63;;;11.30;98.70;;;;;;6272445;22;20136;-79
2022/01/03 09:11:13;;;;;;;11.13;2.87;;;11.30;99.30;;;;;;6271406;22;20156;-90
2022/01/03 09:13:38;;;;;;;10.80;2.77;;;11.20;99.50;;;;;;6273839;22;20183;-81
2022/01/03 09:16:07;;;;;;;12.83;3.60;;;11.30;99.60;;;;;;6274626;22;20136;-80
2022/01/03 09:18:38;;;;;;;13.10;3.10;;;11.20;99.80;;;;;;6273756;22;20151;-80
2022/01/03 09:21:04;;;;;;;16.13;3.43;;;11.20;99.90;;;;;;6272856;22;20133;-80
2022/01/03 09:23:36;;;;;;;13.50;2.93;;;11.10;99.90;;;;;;6273532;22;20161;-80
2022/01/03 09:29:00;;;;;;;10.17;2.80;;;11.20;99.90;;;;;;6274943;22;20147;-81
2022/01/03 09:31:35;;;;;;;11.77;4.10;;;11.20;99.90;;;;;;6298022;22;20132;-81
2022/01/03 09:34:05;;;;;;;13.13;3.20;;;11.20;99.90;;;;;;6274386;22;20198;-81
2022/01/03 09:36:32;;;;;;;15.13;3.23;;;11.30;99.90;;;;;;6274505;22;20151;-79
2022/01/03 09:39:00;;;;;;;10.83;2.93;;;11.20;99.90;;;;;;6298575;22;20135;-79
2022/01/03 09:41:45;;;;;;;12.03;3.83;;;11.20;99.90;;;;;;6297694;22;20151;-79
2022/01/03 09:44:32;;;;;;;13.60;3.87;;;11.30;99.90;;;;;;6273389;22;20136;-80
2022/01/03 09:47:16;;;;;;;14.50;3.67;;;11.30;99.90;;;;;;6274545;22;20144;-80
2022/01/03 09:49:43;;;;;;;14.13;4.10;;;11.30;99.90;;;;;;6273571;22;20136;-82
2022/01/03 09:52:15;;;;;;;16.47;4.67;;;11.20;99.90;;;;;;6273230;22;20136;-79
2022/01/03 09:54:46;;;;;;;13.00;4.20;;;11.30;99.90;;;;;;6274355;22;20192;-80
2022/01/03 09:57:15;;;;;;;15.07;4.53;;;11.30;99.90;;;;;;6299254;22;20120;-82
2022/01/03 10:00:08;;;;;;;14.30;3.73;;;11.40;99.90;;;;;;6273379;22;20174;-79
2022/01/03 10:02:58;;;;;;;14.73;3.90;;;11.40;99.90;;;;;;6273239;22;20221;-82
2022/01/03 10:05:27;;;;;;;13.93;4.10;;;11.40;99.90;;;;;;6274367;22;20166;-79
2022/01/03 10:07:53;;;;;;;15.03;4.80;;;11.50;99.60;;;;;;6299457;22;20125;-78
2022/01/03 10:10:19;;;;;;;13.63;4.10;;;11.50;99.50;;;;;;6273376;22;20203;-83
2022/01/03 10:12:47;;;;;;;17.53;4.50;;;11.60;99.10;;;;;;6273054;22;20177;-81
2022/01/03 10:15:14;;;;;;;22.87;4.67;;;11.60;98.70;;;;;;6273856;22;20159;-79
2022/01/03 10:17:42;;;;;;;19.47;4.83;;;11.50;99.30;;;;;;6299199;22;20160;-81
2022/01/03 10:20:16;;;;;;;20.87;4.67;;;11.60;99.60;;;;;;6273409;22;20132;-79
2022/01/03 10:23:08;;;;;;;15.93;4.53;;;11.50;99.90;;;;;;6273039;22;20164;-82
2022/01/03 10:25:42;;;;;;;17.67;4.57;;;11.40;99.90;;;;;;6299089;22;20143;-81
2022/01/03 10:28:17;;;;;;;17.97;4.53;;;11.40;99.90;;;;;;6273733;22;20200;-81
2022/01/03 10:30:52;;;;;;;18.87;5.07;;;11.40;99.90;;;;;;6290613;22;20189;-81
2022/01/03 10:33:29;;;;;;;16.30;4.77;;;11.30;99.90;;;;;;6274641;22;20162;-81
2022/01/03 10:36:36;;;;;;;23.67;5.07;;;11.30;99.90;;;;;;6274561;22;20144;-81
2022/01/03 10:39:56;;;;;;;17.90;4.93;;;11.40;99.90;;;;;;6273860;22;20208;-80
2022/01/03 10:42:37;;;;;;;19.00;5.07;;;11.50;99.90;;;;;;6274272;22;20140;-81
2022/01/03 10:45:04;;;;;;;20.23;4.90;;;11.60;99.90;;;;;;6273587;22;20137;-78
2022/01/03 10:47:36;;;;;;;17.67;5.07;;;11.60;99.90;;;;;;6274199;22;20132;-82
2022/01/03 10:50:20;;;;;;;16.80;4.63;;;11.50;99.90;;;;;;6273947;22;20136;-79
2022/01/03 10:53:07;;;;;;;17.97;4.40;;;11.50;99.90;;;;;;6276057;22;20142;-79
2022/01/03 10:55:45;;;;;;;18.93;5.03;;;11.60;99.90;;;;;;6276183;22;20135;-81
2022/01/03 11:01:43;;;;;;;26.17;6.77;;;11.50;99.90;;;;;;6275797;22;20135;-82
2022/01/03 11:04:36;;;;;;;19.53;5.03;;;11.50;99.90;;;;;;6272989;22;20143;-80
2022/01/03 11:10:44;;;;;;;20.03;5.33;;;11.60;99.90;;;;;;6275303;22;20214;-80
2022/01/03 11:13:23;;;;;;;15.07;4.60;;;11.60;99.90;;;;;;6274433;22;20163;-80
2022/01/03 11:16:28;;;;;;;21.23;4.80;;;11.50;99.90;;;;;;6273475;23;20140;-81
2022/01/03 11:18:54;;;;;;;18.00;4.37;;;11.50;99.90;;;;;;6271008;22;20570;-79
2022/01/03 11:24:48;;;;;;;21.90;5.43;;;11.40;99.90;;;;;;6271231;22;20207;-80
2022/01/03 11:27:43;;;;;;;19.40;5.50;;;11.40;99.90;;;;;;6271913;23;20120;-82
2022/01/03 11:30:46;;;;;;;20.27;5.43;;;11.40;99.90;;;;;;6272418;22;20158;-81
2022/01/03 11:33:14;;;;;;;18.20;4.40;;;11.40;99.90;;;;;;6271168;23;20172;-80
2022/01/03 11:35:52;;;;;;;14.13;3.90;;;11.40;99.90;;;;;;6271798;22;20160;-80
2022/01/03 11:38:31;;;;;;;11.83;3.70;;;11.30;99.90;;;;;;6271653;22;20173;-81
2022/01/03 11:41:45;;;;;;;14.03;3.97;;;11.20;99.90;;;;;;6271162;22;20176;-82
2022/01/03 11:44:32;;;;;;;14.17;3.73;;;11.20;99.90;;;;;;6271107;22;20138;-79
2022/01/03 11:47:39;;;;;;;15.50;4.97;;;11.20;99.90;;;;;;6274036;22;20128;-80
2022/01/03 11:54:03;;;;;;;16.43;3.87;;;11.10;99.90;;;;;;6274746;22;20218;-80
2022/01/03 12:03:37;;;;;;;12.23;4.50;;;10.90;99.90;;;;;;6269517;23;20584;-79
2022/01/03 12:06:09;;;;;;;14.20;4.67;;;10.90;99.90;;;;;;6270082;23;20144;-81
2022/01/03 12:08:58;;;;;;;19.97;4.03;;;10.90;99.90;;;;;;6270638;22;20147;-81
2022/01/03 12:11:44;;;;;;;10.77;3.63;;;10.90;99.90;;;;;;6264142;22;20195;-86
2022/01/03 12:14:17;;;;;;;13.83;3.70;;;10.90;99.90;;;;;;6265459;22;20306;-82
2022/01/03 12:17:07;;;;;;;10.73;3.63;;;10.90;99.90;;;;;;6258394;22;20175;-91
2022/01/03 12:22:55;;;;;;;12.97;4.20;;;11.10;99.90;;;;;;6265395;23;20521;-87
2022/01/03 12:25:32;;;;;;;10.63;3.70;;;11.00;99.90;;;;;;6261309;23;20164;-94
2022/01/03 12:28:03;;;;;;;12.23;4.67;;;11.00;99.90;;;;;;6260897;23;20152;-85
2022/01/03 12:30:34;;;;;;;22.67;6.77;;;11.00;99.90;;;;;;6257770;22;20150;-93
2022/01/03 12:33:11;;;;;;;14.03;5.63;;;11.00;99.90;;;;;;6264270;23;20156;-81
2022/01/03 12:36:19;;;;;;;16.47;5.43;;;11.00;99.90;;;;;;6269538;22;20163;-89
2022/01/03 12:42:09;;;;;;;12.23;4.30;;;11.20;99.90;;;;;;6274596;23;20167;-88
2022/01/03 12:48:15;;;;;;;6.80;3.50;;;11.10;99.90;;;;;;6266893;23;20639;-87
2022/01/03 12:57:31;;;;;;;11.77;3.23;;;10.80;99.90;;;;;;6266920;23;20132;-83
2022/01/03 13:04:21;;;;;;;7.20;2.50;;;10.60;99.90;;;;;;6269530;23;20223;-80
2022/01/03 13:14:19;;;;;;;5.17;2.27;;;10.60;99.90;;;;;;6270110;22;20194;-80
2022/01/03 13:20:42;;;;;;;5.43;2.07;;;10.60;99.90;;;;;;6198111;23;20154;-92
2022/01/03 13:26:56;;;;;;;6.63;2.20;;;10.60;99.90;;;;;;6199833;23;20184;-93
2022/01/03 13:29:31;;;;;;;4.47;1.97;;;10.70;99.90;;;;;;6205114;23;20153;-82
2022/01/03 13:32:20;;;;;;;5.70;1.80;;;10.60;99.90;;;;;;6240167;23;20167;-91
2022/01/03 13:34:49;;;;;;;5.67;1.90;;;10.70;99.90;;;;;;6262999;23;20215;-80
2022/01/03 13:37:41;;;;;;;8.90;2.40;;;10.70;99.90;;;;;;6267115;23;20137;-79
2022/01/03 13:40:13;;;;;;;8.37;2.33;;;10.70;99.90;;;;;;6269213;22;20182;-81
2022/01/03 13:43:07;;;;;;;4.97;1.83;;;10.70;99.90;;;;;;6269850;22;20148;-81
2022/01/03 13:49:21;;;;;;;7.93;1.97;;;10.70;99.90;;;;;;6274764;22;20179;-84
2022/01/03 13:58:25;;;;;;;7.17;2.30;;;10.70;99.90;;;;;;6271637;23;20228;-81
2022/01/03 14:01:31;;;;;;;6.20;1.97;;;10.70;99.90;;;;;;6272876;22;20140;-78
2022/01/03 14:04:07;;;;;;;6.20;2.00;;;10.70;99.90;;;;;;6272641;22;20121;-79
2022/01/03 14:06:33;;;;;;;5.10;1.80;;;10.80;99.90;;;;;;6272870;22;20159;-79
2022/01/03 14:09:11;;;;;;;7.37;1.83;;;10.80;99.90;;;;;;6296453;22;20151;-80
2022/01/03 14:11:43;;;;;;;5.27;1.53;;;10.80;99.90;;;;;;6272945;22;20160;-80
2022/01/03 14:14:15;;;;;;;6.67;1.90;;;10.80;99.90;;;;;;6273755;22;20160;-79
2022/01/03 14:20:11;;;;;;;5.10;1.83;;;10.80;99.90;;;;;;6273937;22;20196;-79
2022/01/03 14:26:17;;;;;;;7.07;1.70;;;10.70;99.90;;;;;;6270936;22;20213;-81
2022/01/03 14:29:29;;;;;;;5.03;2.00;;;10.80;99.90;;;;;;6271414;22;20144;-80
2022/01/03 14:32:12;;;;;;;11.43;2.70;;;10.80;99.90;;;;;;6271574;22;20133;-80
2022/01/03 14:34:57;;;;;;;7.70;2.77;;;10.70;99.90;;;;;;6297425;22;20156;-79
2022/01/03 14:40:56;;;;;;;5.50;2.23;;;10.50;99.90;;;;;;6273154;23;20159;-80
2022/01/03 14:44:08;;;;;;;9.17;2.13;;;10.80;99.90;;;;;;6272463;22;20166;-81
2022/01/03 14:47:17;;;;;;;5.60;2.13;;;10.70;99.90;;;;;;5155659;27;20483;-80
2022/01/03 14:53:07;;;;;;;6.13;1.80;;;10.70;99.90;;;;;;5156642;27;20137;-81
2022/01/03 14:56:21;;;;;;;4.87;1.90;;;10.70;99.90;;;;;;5155814;27;20192;-82
2022/01/03 14:58:50;;;;;;;5.87;1.90;;;10.70;99.90;;;;;;5156464;27;20166;-80
2022/01/03 15:01:18;;;;;;;5.30;1.63;;;10.60;99.90;;;;;;5171668;27;20308;-79
2022/01/03 15:07:15;;;;;;;5.67;2.03;;;10.60;99.90;;;;;;5151234;28;20240;-81
2022/01/03 15:10:04;;;;;;;7.53;2.17;;;10.60;99.90;;;;;;5149885;27;20199;-79
2022/01/03 15:16:12;;;;;;;6.00;2.63;;;10.50;99.90;;;;;;5148022;28;20204;-80
2022/01/03 15:18:43;;;;;;;7.30;2.90;;;10.50;99.90;;;;;;5153956;28;20195;-82
2022/01/03 15:24:31;;;;;;;4.10;2.07;;;10.50;99.90;;;;;;5156056;27;20190;-81
2022/01/03 15:27:14;;;;;;;7.30;2.50;;;10.40;99.90;;;;;;5155487;27;20178;-84
2022/01/03 15:30:32;;;;;;;7.03;2.17;;;10.60;99.90;;;;;;5154916;27;20173;-87
2022/01/03 15:33:10;;;;;;;3.57;1.50;;;10.70;99.90;;;;;;5149093;28;20254;-82
2022/01/03 15:35:44;;;;;;;5.93;1.43;;;10.60;99.90;;;;;;5151470;27;20158;-90
2022/01/03 15:38:19;;;;;;;4.57;1.60;;;10.70;99.90;;;;;;5148235;28;20178;-87
2022/01/03 15:41:26;;;;;;;3.30;1.60;;;10.70;99.90;;;;;;5148210;27;20158;-82
2022/01/03 15:44:32;;;;;;;3.27;1.13;;;10.90;99.90;;;;;;5141663;28;20644;-87
2022/01/03 15:50:24;;;;;;;5.00;1.70;;;10.80;99.90;;;;;;5147645;28;20216;-91
2022/01/03 15:52:50;;;;;;;3.37;1.90;;;10.80;99.90;;;;;;5147916;28;20167;-90
2022/01/03 15:58:42;;;;;;;2.70;1.17;;;10.80;99.90;;;;;;5136708;28;20178;-95
2022/01/03 16:01:13;;;;;;;4.90;1.50;;;10.70;99.90;;;;;;5136416;28;20171;-89
2022/01/03 16:03:44;;;;;;;3.47;1.50;;;10.70;99.90;;;;;;5136485;28;20193;-88
2022/01/03 16:06:13;;;;;;;5.07;1.53;;;10.70;99.90;;;;;;5133884;28;20208;-87
2022/01/03 16:08:51;;;;;;;3.13;1.63;;;10.80;99.90;;;;;;5136499;28;20182;-89
2022/01/03 16:11:21;;;;;;;3.37;1.33;;;10.90;99.90;;;;;;5133129;28;20202;-92
2022/01/03 16:14:28;;;;;;;3.73;1.40;;;10.80;99.90;;;;;;5134156;28;20163;-93
2022/01/03 16:17:34;;;;;;;2.30;1.20;;;10.80;99.90;;;;;;5132858;28;20167;-91
2022/01/03 16:20:03;;;;;;;4.23;1.37;;;10.90;99.90;;;;;;5136817;28;20171;-94
2022/01/03 16:22:38;;;;;;;3.20;1.23;;;10.90;99.90;;;;;;5134528;28;20551;-89
2022/01/03 16:25:18;;;;;;;3.77;1.47;;;11.00;99.90;;;;;;5134485;28;20194;-92
2022/01/03 16:27:53;;;;;;;4.20;1.37;;;10.90;99.90;;;;;;5131902;28;20174;-89
2022/01/03 16:30:45;;;;;;;4.13;1.83;;;10.90;99.90;;;;;;5131349;28;20229;-95
2022/01/03 16:33:45;;;;;;;3.83;1.37;;;10.90;99.90;;;;;;5110834;28;20267;-96
2022/01/03 16:36:20;;;;;;;3.87;1.70;;;10.90;99.90;;;;;;5129568;28;20201;-85